createdAt,value
2022-10-11T00:00:47.225Z,92504.53
2022-10-11T00:03:14.672Z,92508.78
2022-10-11T00:05:43.869Z,92501.75
2022-10-11T00:08:11.937Z,92506.00
2022-10-11T00:10:38.663Z,92506.00
2022-10-11T00:13:06.048Z,92504.53
2022-10-11T00:15:32.448Z,92510.09
2022-10-11T00:18:03.247Z,92505.28
2022-10-11T00:20:31.633Z,92510.84
2022-10-11T00:22:58.109Z,92510.09
2022-10-11T00:25:24.573Z,92512.91
2022-10-11T00:27:51.058Z,92508.66
2022-10-11T00:30:17.597Z,92512.91
2022-10-11T00:32:44.081Z,92511.44
2022-10-11T00:35:10.617Z,92512.16
2022-10-11T00:37:38.653Z,92510.09
2022-10-11T00:40:08.762Z,92509.38
2022-10-11T00:42:35.441Z,92515.69
2022-10-11T00:45:40.469Z,92506.00
2022-10-11T00:48:21.657Z,92510.09
2022-10-11T00:50:48.358Z,92514.94
2022-10-11T00:53:15.389Z,92509.38
2022-10-11T00:55:51.376Z,92514.22
2022-10-11T00:58:19.161Z,92514.94
2022-10-11T01:00:46.476Z,92513.47
2022-10-11T01:03:13.015Z,92514.22
2022-10-11T01:05:40.194Z,92514.94
2022-10-11T01:08:08.178Z,92508.66
2022-10-11T01:10:35.024Z,92503.06
2022-10-11T01:13:38.221Z,92507.16
2022-10-11T01:16:17.273Z,92505.88
2022-10-11T01:19:03.442Z,92505.88
2022-10-11T01:21:49.349Z,92507.91
2022-10-11T01:24:41.664Z,92514.22
2022-10-11T01:27:14.098Z,92512.75
2022-10-11T01:29:50.502Z,92518.31
2022-10-11T01:32:24.594Z,92518.31
2022-10-11T01:35:20.128Z,92512.75
2022-10-11T01:37:54.207Z,92514.22
2022-10-11T01:40:33.261Z,92508.66
2022-10-11T01:43:01.609Z,92517.00
2022-10-11T01:45:28.255Z,92517.00
2022-10-11T01:48:08.396Z,92513.47
2022-10-11T01:50:39.571Z,92501.59
2022-10-11T01:53:36.193Z,92505.13
2022-10-11T01:56:19.786Z,92514.22
2022-10-11T01:59:11.081Z,92497.34
2022-10-11T02:01:59.422Z,92494.56
2022-10-11T02:04:25.837Z,92496.59
2022-10-11T02:06:58.421Z,92502.94
2022-10-11T02:09:44.588Z,92500.13
2022-10-11T02:12:16.569Z,92494.56
2022-10-11T02:14:48.133Z,92498.81
2022-10-11T02:17:19.366Z,92506.44
2022-10-11T02:19:50.247Z,92496.03
2022-10-11T02:22:25.129Z,92494.56
2022-10-11T02:24:55.594Z,92494.56
2022-10-11T02:27:26.596Z,92489.00
2022-10-11T02:29:56.056Z,92498.66
2022-10-11T02:32:25.521Z,92498.66
2022-10-11T02:34:57.632Z,92493.06
2022-10-11T02:37:40.860Z,92494.56
2022-10-11T02:40:29.422Z,92496.59
2022-10-11T02:43:28.000Z,92498.66
2022-10-11T02:45:59.485Z,92498.66
2022-10-11T02:48:29.968Z,92495.88
2022-10-11T02:50:57.733Z,92492.38
2022-10-11T02:53:26.165Z,92494.41
2022-10-11T02:55:54.452Z,92497.94
2022-10-11T02:58:21.826Z,92491.63
2022-10-11T03:00:48.536Z,92501.44
2022-10-11T03:03:15.762Z,92500.13
2022-10-11T03:05:43.504Z,92498.66
2022-10-11T03:08:12.144Z,92500.13
2022-10-11T03:10:39.623Z,92504.22
2022-10-11T03:13:06.300Z,92493.06
2022-10-11T03:15:32.962Z,92500.13
2022-10-11T03:17:59.786Z,92504.22
2022-10-11T03:20:26.616Z,92507.00
2022-10-11T03:22:53.611Z,92501.44
2022-10-11T03:25:20.088Z,92493.06
2022-10-11T03:27:46.558Z,92500.72
2022-10-11T03:30:17.891Z,92505.72
2022-10-11T03:32:44.719Z,92503.50
2022-10-11T03:35:11.221Z,92495.16
2022-10-11T03:37:37.924Z,92493.06
2022-10-11T03:40:06.124Z,92498.66
2022-10-11T03:42:32.622Z,92497.19
2022-10-11T03:45:01.621Z,92503.50
2022-10-11T03:47:28.084Z,92507.00
2022-10-11T03:49:54.537Z,92509.81
2022-10-11T03:52:21.059Z,92509.81
2022-10-11T03:54:47.988Z,92513.91
2022-10-11T03:57:14.801Z,92512.59
2022-10-11T03:59:41.249Z,92516.13
2022-10-11T04:02:07.860Z,92512.59
2022-10-11T04:04:34.504Z,92509.81
2022-10-11T04:07:00.977Z,92513.34
2022-10-11T04:09:27.497Z,92509.81
2022-10-11T04:11:54.015Z,92516.84
2022-10-11T04:14:20.525Z,92515.38
2022-10-11T04:16:47.027Z,92508.34
2022-10-11T04:19:13.581Z,92523.75
2022-10-11T04:21:40.228Z,92512.59
2022-10-11T04:24:06.961Z,92509.81
2022-10-11T04:26:33.409Z,92515.38
2022-10-11T04:28:59.998Z,92526.53
2022-10-11T04:31:26.490Z,92525.81
2022-10-11T04:33:53.140Z,92525.81
2022-10-11T04:36:19.653Z,92532.09
2022-10-11T04:38:46.117Z,92528.00
2022-10-11T04:41:13.986Z,92532.84
2022-10-11T04:43:40.477Z,92532.09
2022-10-11T04:46:08.387Z,92526.53
2022-10-11T04:48:35.781Z,92533.59
2022-10-11T04:51:02.333Z,92535.03
2022-10-11T04:53:28.865Z,92539.16
2022-10-11T04:56:01.545Z,92546.19
2022-10-11T04:58:29.694Z,92536.53
2022-10-11T05:00:57.001Z,92542.09
2022-10-11T05:03:24.400Z,92537.97
2022-10-11T05:05:51.085Z,92539.44
2022-10-11T05:08:17.718Z,92545.16
2022-10-11T05:10:54.973Z,92545.03
2022-10-11T05:13:21.436Z,92547.81
2022-10-11T05:15:47.996Z,92545.03
2022-10-11T05:18:14.492Z,92543.56
2022-10-11T05:20:41.399Z,92549.13
2022-10-11T05:23:08.493Z,92547.69
2022-10-11T05:25:35.048Z,92553.25
2022-10-11T05:28:01.547Z,92555.28
2022-10-11T05:30:28.065Z,92546.19
2022-10-11T05:32:54.573Z,92550.31
2022-10-11T05:35:21.032Z,92544.00
2022-10-11T05:37:47.464Z,92550.31
2022-10-11T05:40:14.233Z,92550.91
2022-10-11T05:42:40.758Z,92547.38
2022-10-11T05:45:07.706Z,92548.81
2022-10-11T05:47:34.205Z,92552.94
2022-10-11T05:50:00.637Z,92558.50
2022-10-11T05:52:27.098Z,92557.03
2022-10-11T05:54:53.563Z,92568.91
2022-10-11T05:57:20.037Z,92564.09
2022-10-11T05:59:46.508Z,92566.88
2022-10-11T06:02:13.761Z,92569.66
2022-10-11T06:04:40.230Z,92572.28
2022-10-11T06:07:07.104Z,92575.25
2022-10-11T06:09:36.394Z,92575.25
2022-10-11T06:12:03.428Z,92580.06
2022-10-11T06:14:29.913Z,92577.28
2022-10-11T06:16:56.431Z,92572.28
2022-10-11T06:19:23.052Z,92579.31
2022-10-11T06:21:49.589Z,92586.22
2022-10-11T06:24:16.070Z,92589.03
2022-10-11T06:26:42.722Z,92593.13
2022-10-11T06:29:09.930Z,92584.19
2022-10-11T06:31:36.453Z,92584.91
2022-10-11T06:34:02.963Z,92593.84
2022-10-11T06:36:29.891Z,92589.03
2022-10-11T06:38:56.467Z,92594.59
2022-10-11T06:41:28.563Z,92594.59
2022-10-11T06:43:55.763Z,92598.72
2022-10-11T06:46:24.260Z,92602.97
2022-10-11T06:48:51.256Z,92605.00
2022-10-11T06:51:20.474Z,92605.00
2022-10-11T06:53:51.818Z,92605.75
2022-10-11T06:56:18.992Z,92600.16
2022-10-11T06:58:45.590Z,92605.75
2022-10-11T07:01:18.440Z,92610.56
2022-10-11T07:03:48.060Z,92616.91
2022-10-11T07:06:17.737Z,92611.31
2022-10-11T07:08:44.209Z,92609.88
2022-10-11T07:11:16.277Z,92607.78
2022-10-11T07:13:43.351Z,92612.66
2022-10-11T07:16:12.104Z,92609.88
2022-10-11T07:18:39.145Z,92618.22
2022-10-11T07:21:08.560Z,92615.44
2022-10-11T07:23:35.369Z,92615.44
2022-10-11T07:26:02.185Z,92619.53
2022-10-11T07:28:30.610Z,92626.59
2022-10-11T07:30:58.661Z,92619.53
2022-10-11T07:33:25.288Z,92625.09
2022-10-11T07:35:51.797Z,92623.63
2022-10-11T07:38:18.371Z,92622.31
2022-10-11T07:40:46.448Z,92619.53
2022-10-11T07:43:13.941Z,92618.78
2022-10-11T07:45:41.833Z,92613.19
2022-10-11T07:48:08.852Z,92612.50
2022-10-11T07:50:35.827Z,92618.06
2022-10-11T07:53:02.659Z,92609.69
2022-10-11T07:55:31.109Z,92611.75
2022-10-11T07:57:58.013Z,92611.75
2022-10-11T08:00:27.189Z,92613.78
2022-10-11T08:02:53.668Z,92610.28
2022-10-11T08:05:20.480Z,92616.56
2022-10-11T08:07:48.757Z,92617.91
2022-10-11T08:10:15.349Z,92609.53
2022-10-11T08:12:41.785Z,92606.75
2022-10-11T08:15:08.541Z,92615.13
2022-10-11T08:17:35.184Z,92601.19
2022-10-11T08:20:01.721Z,92597.66
2022-10-11T08:22:28.164Z,92601.19
2022-10-11T08:24:54.636Z,92592.81
2022-10-11T08:27:21.134Z,92592.81
2022-10-11T08:29:47.692Z,92587.25
2022-10-11T08:32:14.161Z,92598.41
2022-10-11T08:34:40.630Z,92584.47
2022-10-11T08:37:07.096Z,92583.13
2022-10-11T08:39:33.594Z,92584.03
2022-10-11T08:42:15.445Z,92586.38
2022-10-11T08:45:10.711Z,92579.47
2022-10-11T08:47:42.760Z,92578.19
2022-10-11T08:50:22.028Z,92578.19
2022-10-11T08:53:14.724Z,92571.13
2022-10-11T08:55:49.501Z,92571.13
2022-10-11T08:58:19.173Z,92567.63
2022-10-11T09:00:48.697Z,92557.03
2022-10-11T09:03:35.433Z,92557.63
2022-10-11T09:06:50.300Z,92548.53
2022-10-11T09:10:04.038Z,92535.91
2022-10-11T09:12:40.922Z,92541.47
2022-10-11T09:15:14.617Z,92538.69
2022-10-11T09:17:43.743Z,92537.25
2022-10-11T09:20:31.729Z,92535.16
2022-10-11T09:23:16.460Z,92534.44
2022-10-11T09:25:54.980Z,92532.97
2022-10-11T09:28:34.470Z,92521.81
2022-10-11T09:31:01.181Z,92516.25
2022-10-11T09:33:30.354Z,92512.16
2022-10-11T09:35:57.434Z,92513.47
2022-10-11T09:38:32.741Z,92508.47
2022-10-11T09:41:11.691Z,92496.59
2022-10-11T09:43:38.452Z,92503.63
2022-10-11T09:46:27.600Z,92492.50
2022-10-11T09:48:55.849Z,92493.22
2022-10-11T09:51:25.912Z,92492.50
2022-10-11T09:53:58.618Z,92486.19
2022-10-11T09:56:27.629Z,92481.34
2022-10-11T09:59:24.001Z,92479.84
2022-10-11T10:02:15.395Z,92481.34
2022-10-11T10:04:53.769Z,92481.34
2022-10-11T10:07:21.144Z,92475.78
2022-10-11T10:09:47.823Z,92470.19
2022-10-11T10:12:22.678Z,92465.38
2022-10-11T10:15:19.039Z,92464.63
2022-10-11T10:17:53.112Z,92465.38
2022-10-11T10:20:26.313Z,92467.41
2022-10-11T10:22:53.453Z,92456.41
2022-10-11T10:25:30.247Z,92457.72
2022-10-11T10:27:59.552Z,92449.34
2022-10-11T10:30:26.759Z,92452.13
2022-10-11T10:33:02.698Z,92446.56
2022-10-11T10:35:37.692Z,92438.22
2022-10-11T10:38:26.676Z,92443.78
2022-10-11T10:40:58.868Z,92436.16
2022-10-11T10:43:28.008Z,92441.72
2022-10-11T10:45:57.411Z,92427.81
2022-10-11T10:49:18.803Z,92429.84
2022-10-11T10:51:34.154Z,92429.84
2022-10-11T10:54:08.609Z,92424.28
2022-10-11T10:56:46.166Z,92427.06
2022-10-11T10:59:31.217Z,92415.91
2022-10-11T11:02:38.894Z,92411.81
2022-10-11T11:05:32.780Z,92404.75
2022-10-11T11:07:59.166Z,92410.34
2022-10-11T11:10:33.733Z,92404.75
2022-10-11T11:13:00.177Z,92402.13
2022-10-11T11:15:49.574Z,92406.25
2022-10-11T11:18:15.969Z,92398.59
2022-10-11T11:21:31.949Z,92395.09
2022-10-11T11:24:24.949Z,92389.53
2022-10-11T11:27:01.016Z,92388.19
2022-10-11T11:29:55.570Z,92380.56
2022-10-11T11:33:00.555Z,92374.25
2022-10-11T11:35:38.141Z,92367.22
2022-10-11T11:38:14.354Z,92368.69
2022-10-11T11:40:47.296Z,92367.22
2022-10-11T11:43:35.601Z,92357.53
2022-10-11T11:46:29.316Z,92356.09
2022-10-11T11:48:58.692Z,92348.31
2022-10-11T11:51:31.504Z,92349.03
2022-10-11T11:54:12.778Z,92346.97
2022-10-11T11:56:45.052Z,92339.34
2022-10-11T11:59:17.292Z,92343.44
2022-10-11T12:02:25.325Z,92346.38
2022-10-11T12:04:52.961Z,92341.56
2022-10-11T12:07:22.565Z,92335.97
2022-10-11T12:09:54.420Z,92339.34
2022-10-11T12:12:34.074Z,92329.66
2022-10-11T12:15:09.925Z,92324.09
2022-10-11T12:17:54.780Z,92325.44
2022-10-11T12:20:25.637Z,92322.63
2022-10-11T12:22:56.157Z,92324.09
2022-10-11T12:25:22.568Z,92315.72
2022-10-11T12:27:58.120Z,92312.19
2022-10-11T12:30:42.792Z,92308.69
2022-10-11T12:33:21.485Z,92311.50
2022-10-11T12:36:05.584Z,92310.75
2022-10-11T12:38:40.259Z,92310.75
2022-10-11T12:41:09.512Z,92305.19
2022-10-11T12:44:13.440Z,92304.44
2022-10-11T12:46:40.324Z,92300.94
2022-10-11T12:49:32.297Z,92297.56
2022-10-11T12:52:02.553Z,92283.63
2022-10-11T12:54:56.076Z,92285.06
2022-10-11T12:57:45.940Z,92289.34
2022-10-11T13:00:16.038Z,92275.41
2022-10-11T13:02:42.709Z,92275.41
2022-10-11T13:05:25.138Z,92274.06
2022-10-11T13:07:53.754Z,92272.03
2022-10-11T13:10:28.860Z,92263.81
2022-10-11T13:12:59.545Z,92261.59
2022-10-11T13:15:26.800Z,92257.50
2022-10-11T13:17:59.995Z,92257.50
2022-10-11T13:20:31.278Z,92257.66
2022-10-11T13:22:58.509Z,92254.84
2022-10-11T13:25:36.819Z,92252.06
2022-10-11T13:28:03.858Z,92252.78
2022-10-11T13:30:34.385Z,92256.31
2022-10-11T13:33:05.794Z,92254.25
2022-10-11T13:35:37.383Z,92250.72
2022-10-11T13:38:08.112Z,92247.94
2022-10-11T13:40:35.676Z,92250.72
2022-10-11T13:43:05.179Z,92245.16
2022-10-11T13:45:32.769Z,92245.16
2022-10-11T13:47:59.392Z,92249.44
2022-10-11T13:50:35.183Z,92238.84
2022-10-11T13:53:10.709Z,92241.06
2022-10-11T13:55:59.439Z,92245.31
2022-10-11T13:58:46.826Z,92239.00
2022-10-11T14:01:22.608Z,92235.50
2022-10-11T14:03:57.236Z,92236.19
2022-10-11T14:06:24.308Z,92236.94
2022-10-11T14:08:55.968Z,92241.06
2022-10-11T14:11:35.592Z,92236.94
2022-10-11T14:14:34.168Z,92225.78
2022-10-11T14:17:53.254Z,92232.09
2022-10-11T14:20:19.702Z,92229.91
2022-10-11T14:22:46.617Z,92235.59
2022-10-11T14:25:13.371Z,92225.78
2022-10-11T14:27:40.091Z,92234.91
2022-10-11T14:30:25.183Z,92236.94
2022-10-11T14:32:54.964Z,92238.41
2022-10-11T14:35:27.261Z,92238.41
2022-10-11T14:37:53.809Z,92230.03
2022-10-11T14:40:24.173Z,92235.59
2022-10-11T14:42:50.780Z,92235.59
2022-10-11T14:45:18.257Z,92232.81
2022-10-11T14:47:45.312Z,92232.81
2022-10-11T14:50:26.344Z,92231.50
2022-10-11T14:52:52.974Z,92240.63
2022-10-11T14:55:19.488Z,92232.81
2022-10-11T14:57:46.641Z,92234.31
2022-10-11T15:00:23.013Z,92232.41
2022-10-11T15:02:50.912Z,92236.03
2022-10-11T15:05:17.378Z,92238.22
2022-10-11T15:07:43.885Z,92225.19
2022-10-11T15:10:21.756Z,92228.09
2022-10-11T15:12:49.876Z,92238.06
2022-10-11T15:15:20.561Z,92238.81
2022-10-11T15:17:52.147Z,92235.44
2022-10-11T15:20:27.431Z,92235.44
2022-10-11T15:22:55.122Z,92234.81
2022-10-11T15:25:22.492Z,92232.78
2022-10-11T15:27:50.091Z,92231.59
2022-10-11T15:30:21.250Z,92233.06
2022-10-11T15:32:48.485Z,92240.09
2022-10-11T15:35:16.038Z,92238.19
2022-10-11T15:37:43.049Z,92244.47
2022-10-11T15:40:36.931Z,92244.63
2022-10-11T15:43:04.402Z,92240.53
2022-10-11T15:45:30.997Z,92243.31
2022-10-11T15:47:57.776Z,92245.50
2022-10-11T15:50:34.610Z,92247.69
2022-10-11T15:53:09.606Z,92247.69
2022-10-11T15:55:39.598Z,92248.88
2022-10-11T15:58:07.349Z,92252.25
2022-10-11T16:00:33.821Z,92257.81
2022-10-11T16:03:00.280Z,92255.03
2022-10-11T16:05:28.276Z,92253.00
2022-10-11T16:07:55.103Z,92265.63
2022-10-11T16:10:21.694Z,92257.25
2022-10-11T16:12:48.904Z,92258.72
2022-10-11T16:15:15.721Z,92267.06
2022-10-11T16:17:42.170Z,92268.53
2022-10-11T16:20:08.915Z,92258.84
2022-10-11T16:22:35.936Z,92271.47
2022-10-11T16:25:02.781Z,92271.47
2022-10-11T16:27:29.582Z,92274.09
2022-10-11T16:29:56.261Z,92272.66
2022-10-11T16:32:24.197Z,92279.56
2022-10-11T16:34:50.729Z,92279.41
2022-10-11T16:37:17.567Z,92282.06
2022-10-11T16:39:44.144Z,92278.38
2022-10-11T16:42:10.661Z,92284.56
2022-10-11T16:44:38.773Z,92285.91
2022-10-11T16:47:06.253Z,92294.13
2022-10-11T16:49:33.296Z,92292.63
2022-10-11T16:52:00.745Z,92295.44
2022-10-11T16:54:27.658Z,92300.84
2022-10-11T16:56:54.424Z,92294.56
2022-10-11T16:59:20.987Z,92297.94
2022-10-11T17:01:47.908Z,92303.53
2022-10-11T17:04:14.644Z,92303.53
2022-10-11T17:06:43.880Z,92310.56
2022-10-11T17:09:11.073Z,92312.00
2022-10-11T17:11:37.610Z,92312.31
2022-10-11T17:14:05.895Z,92311.84
2022-10-11T17:16:32.721Z,92312.16
2022-10-11T17:18:59.310Z,92319.91
2022-10-11T17:21:25.878Z,92319.91
2022-10-11T17:23:52.756Z,92322.72
2022-10-11T17:26:24.856Z,92330.31
2022-10-11T17:28:51.538Z,92329.63
2022-10-11T17:31:18.128Z,92328.13
2022-10-11T17:33:44.631Z,92331.53
2022-10-11T17:36:20.553Z,92333.56
2022-10-11T17:38:48.185Z,92344.59
2022-10-11T17:41:15.246Z,92346.06
2022-10-11T17:43:41.791Z,92351.63
2022-10-11T17:46:09.178Z,92357.22
2022-10-11T17:48:39.090Z,92355.75
2022-10-11T17:51:16.917Z,92358.41
2022-10-11T17:53:43.692Z,92358.41
2022-10-11T17:56:13.250Z,92362.50
2022-10-11T17:58:40.008Z,92366.63
2022-10-11T18:01:13.612Z,92358.25
2022-10-11T18:03:40.870Z,92353.97
2022-10-11T18:06:11.501Z,92362.94
2022-10-11T18:08:40.666Z,92369.25
2022-10-11T18:11:13.786Z,92365.00
2022-10-11T18:13:43.203Z,92371.91
2022-10-11T18:16:11.145Z,92371.91
2022-10-11T18:18:38.461Z,92371.16
2022-10-11T18:21:05.184Z,92364.88
2022-10-11T18:23:32.836Z,92372.50
2022-10-11T18:25:59.345Z,92368.22
2022-10-11T18:28:25.834Z,92371.75
2022-10-11T18:30:53.227Z,92373.09
2022-10-11T18:33:19.696Z,92377.91
2022-10-11T18:35:46.177Z,92377.19
2022-10-11T18:38:12.632Z,92371.59
2022-10-11T18:40:43.449Z,92384.22
2022-10-11T18:43:12.743Z,92382.75
2022-10-11T18:45:39.228Z,92384.81
2022-10-11T18:48:05.764Z,92392.44
2022-10-11T18:50:34.944Z,92391.13
2022-10-11T18:53:02.260Z,92405.06
2022-10-11T18:55:28.762Z,92407.13
2022-10-11T18:57:55.214Z,92405.06
2022-10-11T19:00:39.578Z,92403.59
2022-10-11T19:03:06.941Z,92409.19
2022-10-11T19:05:33.384Z,92408.44
2022-10-11T19:07:59.860Z,92414.00
2022-10-11T19:10:26.312Z,92418.84
2022-10-11T19:12:52.775Z,92420.19
2022-10-11T19:15:19.252Z,92422.22
2022-10-11T19:17:45.704Z,92422.97
2022-10-11T19:20:12.773Z,92435.56
2022-10-11T19:22:39.234Z,92430.00
2022-10-11T19:25:06.470Z,92429.28
2022-10-11T19:27:32.948Z,92427.81
2022-10-11T19:30:00.419Z,92427.09
2022-10-11T19:32:26.988Z,92432.66
2022-10-11T19:34:53.434Z,92430.00
2022-10-11T19:37:19.916Z,92440.00
2022-10-11T19:39:46.370Z,92437.22
2022-10-11T19:42:12.823Z,92439.25
2022-10-11T19:44:39.757Z,92432.94
2022-10-11T19:47:06.640Z,92435.72
2022-10-11T19:49:33.212Z,92445.41
2022-10-11T19:52:01.084Z,92435.56
2022-10-11T19:54:28.238Z,92446.72
2022-10-11T19:56:54.726Z,92441.75
2022-10-11T19:59:21.368Z,92445.28
2022-10-11T20:01:52.457Z,92453.47
2022-10-11T20:04:50.465Z,92455.69
2022-10-11T20:07:06.614Z,92449.38
2022-10-11T20:09:33.150Z,92452.19
2022-10-11T20:11:59.607Z,92449.38
2022-10-11T20:14:26.337Z,92448.66
2022-10-11T20:16:52.833Z,92464.63
2022-10-11T20:19:19.451Z,92453.47
2022-10-11T20:21:46.043Z,92457.59
2022-10-11T20:24:12.669Z,92457.59
2022-10-11T20:26:39.647Z,92460.38
2022-10-11T20:29:06.473Z,92457.59
2022-10-11T20:31:34.567Z,92457.59
2022-10-11T20:34:04.037Z,92461.69
2022-10-11T20:36:31.365Z,92464.47
2022-10-11T20:38:59.387Z,92461.69
2022-10-11T20:41:28.342Z,92461.69
2022-10-11T20:43:56.462Z,92466.56
2022-10-11T20:46:28.068Z,92464.47
2022-10-11T20:49:01.335Z,92467.28
2022-10-11T20:51:29.868Z,92468.75
2022-10-11T20:53:56.564Z,92478.41
2022-10-11T20:56:23.675Z,92474.19
2022-10-11T20:58:52.619Z,92465.81
2022-10-11T21:01:21.327Z,92471.38
2022-10-11T21:03:47.919Z,92474.19
2022-10-11T21:06:14.431Z,92472.13
2022-10-11T21:08:40.985Z,92472.84
2022-10-11T21:11:08.695Z,92474.19
2022-10-11T21:13:36.054Z,92471.38
2022-10-11T21:16:06.860Z,92471.38
2022-10-11T21:18:33.437Z,92471.38
2022-10-11T21:21:11.056Z,92465.81
2022-10-11T21:23:37.741Z,92469.91
2022-10-11T21:26:12.404Z,92472.69
2022-10-11T21:28:40.179Z,92469.91
2022-10-11T21:31:12.491Z,92468.44
2022-10-11T21:33:39.946Z,92476.81
2022-10-11T21:36:07.501Z,92467.13
2022-10-11T21:38:34.724Z,92471.25
2022-10-11T21:41:08.978Z,92469.91
2022-10-11T21:43:38.117Z,92468.44
2022-10-11T21:47:05.013Z,92476.81
2022-10-11T21:49:22.773Z,92479.59
2022-10-11T21:51:49.293Z,92469.91
2022-10-11T21:54:16.539Z,92471.97
2022-10-11T21:56:43.150Z,92469.19
2022-10-11T21:59:12.380Z,92466.97
2022-10-11T22:01:40.225Z,92463.63
2022-10-11T22:04:09.635Z,92469.19
2022-10-11T22:06:37.467Z,92464.34
2022-10-11T22:09:05.423Z,92464.34
2022-10-11T22:11:31.936Z,92464.34
2022-10-11T22:13:58.726Z,92469.91
2022-10-11T22:16:25.256Z,92467.72
2022-10-11T22:18:53.464Z,92466.97
2022-10-11T22:21:22.066Z,92462.88
2022-10-11T22:23:52.382Z,92463.63
2022-10-11T22:26:21.741Z,92467.13
2022-10-11T22:28:49.141Z,92462.88
2022-10-11T22:31:17.344Z,92465.66
2022-10-11T22:36:12.808Z,92465.66
2022-10-11T22:38:40.608Z,92469.91
2022-10-11T22:41:07.730Z,92459.34
2022-10-11T22:43:34.493Z,92466.41
2022-10-11T22:46:01.343Z,92455.81
2022-10-11T22:48:27.808Z,92461.38
2022-10-11T22:50:54.300Z,92450.25
2022-10-11T22:53:20.769Z,92449.53
2022-10-11T22:55:47.278Z,92452.31
2022-10-11T22:58:14.113Z,92455.09
2022-10-11T23:00:40.594Z,92455.81
2022-10-11T23:03:07.544Z,92450.25
2022-10-11T23:05:34.905Z,92457.28
2022-10-11T23:08:01.404Z,92457.28
2022-10-11T23:10:27.985Z,92453.78
2022-10-11T23:12:54.462Z,92456.56
2022-10-11T23:15:20.949Z,92455.81
2022-10-11T23:17:48.396Z,92455.09
2022-10-11T23:20:14.902Z,92455.81
2022-10-11T23:22:41.376Z,92454.34
2022-10-11T23:25:08.381Z,92457.16
2022-10-11T23:27:34.918Z,92460.69
2022-10-11T23:30:01.583Z,92462.72
2022-10-11T23:32:28.032Z,92466.97
2022-10-11T23:34:54.549Z,92465.50
2022-10-11T23:37:21.035Z,92454.34
2022-10-11T23:39:47.496Z,92455.09
2022-10-11T23:42:14.005Z,92459.94
2022-10-11T23:44:40.689Z,92461.97
2022-10-11T23:47:07.204Z,92465.50
2022-10-11T23:49:33.708Z,92458.47
2022-10-11T23:52:00.212Z,92465.50
2022-10-11T23:54:26.761Z,92459.94
2022-10-11T23:56:53.226Z,92462.72
2022-10-11T23:59:19.769Z,92460.69
